Port Angeles, WA

3:39 AM PST on December 10, 2016 (GMT -0800)
Fairchild International | | Change Station

Elev 289 ft 48.12 °N, 123.50 °W | Updated 46 minutes ago

Overcast
Overcast
36 °F
Feels Like 30 °F
N
8
Wind Variable Wind from WSW

Today
High -- | Low -- °F
--% Chance of Precip.
Yesterday
High -- | Low -- °F
Precip. -- in
Pressure 29.80 in
Visibility 10.0 miles
Clouds Mostly Cloudy 6500 ft
Overcast 11000 ft
Windchill 30 °F
Dew Point 35 °F
Humidity 97%
Rainfall 0.00 in
Snow Depth Not available.
7:53 AM 4:20 PM
Waxing Gibbous, 83% visible
METAR KCLM 101053Z AUTO 24007KT 10SM BKN065 OVC110 02/02 A2979 RMK AO2 SLP091 T00220017
Pressure 29.80 in
Visibility 10.0 miles
Clouds Mostly Cloudy 6500 ft
Overcast 11000 ft
Windchill 30 °F
Dew Point 35 °F
Humidity 97%
Rainfall 0.00 in
Snow Depth Not available.
7:53 AM 4:20 PM
Waxing Gibbous, 83% visible
METAR KCLM 101053Z AUTO 24007KT 10SM BKN065 OVC110 02/02 A2979 RMK AO2 SLP091 T00220017

10-Day Weather Forecast

Almanac

Astronomy

Dec. 10, 2016 Rise Set
Actual Time
Civil Twilight
Nautical Twilight
Astronomical Twilight
Moon
Length of Visible Light
Length of Day
Tomorrow will be .
, % of the Moon is Illuminated

Today's Extremes

State Highs State Lows

Community

WunderPhotos

Upload Photos

1,956,536 photos uploaded!

WunderBlog® & News

Nearby

Air Quality

  Air Quality AQ Index Pollutant
Not available.

Snow Depth

Station Depth Elevation

Earthquake Activity

City Distance Mag. Time & Date
Minimum magnitude displayed is 2.5.

Coastal Water Temperatures

Place Temperature

Stations

Nearby Weather Stations

Station Location Temp. Windchill Dew Point Humidity Wind Precip. Elev Updated Type
                   

Watches & Warnings

There are currently no watches in effect.